createdAt,value
2022-08-07T00:01:44.490Z,11.10
2022-08-07T00:04:05.847Z,11.10
2022-08-07T00:06:33.858Z,11.10
2022-08-07T00:09:16.240Z,11.10
2022-08-07T00:11:54.162Z,11.10
2022-08-07T00:14:25.551Z,11.10
2022-08-07T00:16:57.553Z,11.00
2022-08-07T00:19:26.019Z,11.00
2022-08-07T00:22:02.334Z,11.00
2022-08-07T00:24:31.802Z,11.00
2022-08-07T00:27:07.438Z,11.00
2022-08-07T00:29:37.160Z,11.00
2022-08-07T00:32:05.756Z,11.00
2022-08-07T00:34:33.638Z,11.00
2022-08-07T00:37:04.936Z,11.00
2022-08-07T00:39:34.748Z,11.00
2022-08-07T00:42:05.304Z,10.90
2022-08-07T00:44:33.622Z,11.00
2022-08-07T00:47:06.427Z,10.90
2022-08-07T00:50:19.950Z,10.90
2022-08-07T00:52:29.279Z,10.80
2022-08-07T00:55:00.105Z,10.80
2022-08-07T00:57:34.105Z,10.80
2022-08-07T01:00:01.921Z,10.90
2022-08-07T01:02:29.760Z,10.80
2022-08-07T01:04:58.786Z,10.70
2022-08-07T01:07:29.332Z,10.70
2022-08-07T01:10:06.991Z,10.70
2022-08-07T01:12:53.873Z,10.60
2022-08-07T01:16:00.956Z,10.50
2022-08-07T01:18:17.006Z,10.50
2022-08-07T01:20:57.473Z,10.40
2022-08-07T01:23:36.756Z,10.40
2022-08-07T01:26:12.010Z,10.30
2022-08-07T01:28:46.355Z,10.20
2022-08-07T01:31:20.701Z,10.20
2022-08-07T01:33:55.905Z,10.10
2022-08-07T01:36:33.402Z,10.10
2022-08-07T01:39:10.069Z,10.10
2022-08-07T01:42:03.672Z,10.10
2022-08-07T01:44:30.084Z,10.00
2022-08-07T01:46:58.759Z,10.00
2022-08-07T01:49:31.930Z,9.90
2022-08-07T01:52:04.963Z,9.90
2022-08-07T01:54:37.590Z,9.70
2022-08-07T01:57:20.685Z,9.60
2022-08-07T01:59:57.801Z,9.60
2022-08-07T02:03:18.835Z,9.70
2022-08-07T02:05:59.798Z,9.80
2022-08-07T02:08:29.616Z,9.80
2022-08-07T02:10:59.415Z,9.80
2022-08-07T02:13:59.809Z,9.70
2022-08-07T02:16:33.424Z,9.70
2022-08-07T02:20:04.323Z,9.60
2022-08-07T02:21:58.548Z,9.50
2022-08-07T02:24:29.344Z,9.50
2022-08-07T02:26:58.925Z,9.50
2022-08-07T02:29:30.521Z,9.50
2022-08-07T02:32:00.043Z,9.50
2022-08-07T02:34:28.823Z,9.50
2022-08-07T02:36:58.123Z,9.50
2022-08-07T02:39:43.436Z,9.50
2022-08-07T02:42:19.600Z,9.50
2022-08-07T02:44:53.578Z,9.50
2022-08-07T02:47:23.956Z,9.40
2022-08-07T02:50:00.422Z,9.50
2022-08-07T02:52:41.369Z,9.50
2022-08-07T02:55:27.554Z,9.60
2022-08-07T02:58:04.732Z,9.60
2022-08-07T03:00:34.110Z,9.70
2022-08-07T03:03:05.982Z,9.70
2022-08-07T03:05:37.227Z,9.80
2022-08-07T03:08:10.045Z,9.80
2022-08-07T03:10:46.430Z,9.70
2022-08-07T03:13:19.719Z,9.60
2022-08-07T03:15:55.945Z,9.50
2022-08-07T03:18:34.238Z,9.30
2022-08-07T03:21:04.598Z,9.10
2022-08-07T03:24:19.695Z,9.10
2022-08-07T03:26:27.862Z,9.20
2022-08-07T03:28:56.921Z,9.30
2022-08-07T03:31:42.452Z,9.30
2022-08-07T03:34:18.535Z,9.30
2022-08-07T03:36:53.274Z,9.30
2022-08-07T03:39:46.128Z,9.20
2022-08-07T03:42:12.275Z,9.20
2022-08-07T03:44:40.350Z,9.20
2022-08-07T03:47:14.197Z,9.20
2022-08-07T03:49:51.913Z,9.30
2022-08-07T03:52:26.352Z,9.30
2022-08-07T03:55:06.755Z,9.40
2022-08-07T03:58:34.252Z,9.30
2022-08-07T04:00:29.328Z,9.20
2022-08-07T04:03:04.179Z,9.40
2022-08-07T04:05:41.947Z,9.70
2022-08-07T04:08:20.876Z,10.10
2022-08-07T04:10:54.116Z,10.60
2022-08-07T04:14:33.159Z,11.10
2022-08-07T04:16:30.372Z,11.60
2022-08-07T04:19:04.156Z,12.20
2022-08-07T04:21:58.922Z,12.70
2022-08-07T04:24:34.083Z,13.10
2022-08-07T04:27:15.160Z,13.50
2022-08-07T04:30:01.243Z,13.60
2022-08-07T04:32:47.952Z,13.70
2022-08-07T04:35:16.655Z,13.70
2022-08-07T04:38:03.044Z,13.80
2022-08-07T04:40:32.550Z,13.90
2022-08-07T04:43:01.196Z,14.20
2022-08-07T04:45:52.155Z,14.50
2022-08-07T04:48:34.855Z,14.70
2022-08-07T04:51:27.625Z,15.00
2022-08-07T04:54:06.926Z,15.30
2022-08-07T04:58:23.957Z,15.60
2022-08-07T05:00:10.947Z,15.80
2022-08-07T05:02:51.570Z,16.10
2022-08-07T05:05:54.037Z,16.40
2022-08-07T05:08:59.986Z,16.70
2022-08-07T05:11:58.775Z,17.30
2022-08-07T05:14:55.031Z,17.70
2022-08-07T05:17:51.522Z,17.90
2022-08-07T05:20:21.405Z,18.00
2022-08-07T05:22:52.821Z,18.20
2022-08-07T05:25:25.854Z,18.20
2022-08-07T05:28:20.530Z,18.60
2022-08-07T05:30:52.818Z,19.00
2022-08-07T05:33:21.641Z,19.00
2022-08-07T05:35:55.268Z,19.10
2022-08-07T05:39:00.168Z,19.00
2022-08-07T05:41:12.366Z,18.70
2022-08-07T05:44:07.732Z,18.30
2022-08-07T05:46:34.873Z,18.40
2022-08-07T05:49:12.157Z,18.80
2022-08-07T05:51:43.147Z,19.10
2022-08-07T05:54:30.552Z,19.10
2022-08-07T05:57:03.816Z,19.60
2022-08-07T05:59:39.062Z,19.80
2022-08-07T06:02:29.141Z,19.90
2022-08-07T06:05:03.617Z,19.80
2022-08-07T06:08:09.164Z,19.80
2022-08-07T06:10:20.775Z,19.90
2022-08-07T06:12:48.209Z,20.10
2022-08-07T06:15:19.742Z,20.70
2022-08-07T06:17:53.577Z,21.50
2022-08-07T06:20:32.175Z,21.60
2022-08-07T06:23:46.034Z,21.70
2022-08-07T06:25:58.839Z,22.00
2022-08-07T06:28:28.114Z,22.60
2022-08-07T06:30:57.984Z,22.70
2022-08-07T06:33:26.517Z,22.40
2022-08-07T06:36:06.611Z,22.60
2022-08-07T06:38:58.652Z,22.70
2022-08-07T06:42:01.998Z,23.50
2022-08-07T06:44:56.750Z,24.60
2022-08-07T06:47:24.509Z,25.30
2022-08-07T06:49:58.471Z,25.80
2022-08-07T06:52:35.806Z,26.30
2022-08-07T06:55:33.771Z,26.50
2022-08-07T06:58:04.735Z,26.60
2022-08-07T07:00:39.903Z,27.00
2022-08-07T07:03:13.711Z,27.40
2022-08-07T07:06:04.911Z,26.70
2022-08-07T07:08:31.043Z,25.40
2022-08-07T07:11:00.905Z,24.20
2022-08-07T07:13:56.291Z,24.20
2022-08-07T07:16:27.228Z,25.20
2022-08-07T07:19:11.456Z,25.10
2022-08-07T07:22:05.348Z,24.80
2022-08-07T07:24:39.844Z,24.80
2022-08-07T07:27:13.296Z,25.60
2022-08-07T07:30:07.655Z,26.60
2022-08-07T07:32:53.007Z,27.50
2022-08-07T07:35:21.707Z,27.70
2022-08-07T07:37:59.384Z,27.20
2022-08-07T07:40:30.808Z,27.20
2022-08-07T07:43:15.176Z,27.30
2022-08-07T07:46:38.505Z,27.50
2022-08-07T07:48:37.446Z,26.60
2022-08-07T07:51:07.756Z,26.30
2022-08-07T07:53:51.527Z,27.00
2022-08-07T07:56:30.602Z,27.90
2022-08-07T07:59:01.972Z,28.80
2022-08-07T08:02:02.577Z,28.60
2022-08-07T08:04:25.431Z,28.20
2022-08-07T08:06:54.012Z,28.80
2022-08-07T08:09:23.934Z,29.90
2022-08-07T08:12:02.022Z,30.70
2022-08-07T08:14:36.361Z,31.00
2022-08-07T08:18:37.004Z,31.20
2022-08-07T08:20:17.446Z,31.70
2022-08-07T08:23:04.458Z,31.90
2022-08-07T08:25:56.477Z,31.70
2022-08-07T08:28:38.268Z,32.10
2022-08-07T08:31:15.847Z,32.00
2022-08-07T08:33:49.603Z,30.00
2022-08-07T08:36:25.549Z,29.50
2022-08-07T08:39:00.067Z,30.30
2022-08-07T08:41:58.499Z,31.40
2022-08-07T08:44:46.569Z,31.70
2022-08-07T08:47:25.363Z,31.00
2022-08-07T08:50:17.588Z,29.90
2022-08-07T08:53:09.273Z,29.20
2022-08-07T08:55:55.399Z,28.80
2022-08-07T08:58:45.817Z,28.20
2022-08-07T09:01:24.571Z,28.20
2022-08-07T09:04:07.742Z,28.00
2022-08-07T09:07:00.921Z,27.40
2022-08-07T09:09:56.846Z,28.30
2022-08-07T09:12:32.968Z,29.00
2022-08-07T09:16:23.250Z,30.10
2022-08-07T09:18:41.387Z,31.50
2022-08-07T09:21:57.931Z,32.90
2022-08-07T09:25:00.709Z,33.00
2022-08-07T09:28:03.002Z,33.00
2022-08-07T09:30:44.174Z,32.10
2022-08-07T09:33:52.482Z,32.30
2022-08-07T09:36:29.287Z,31.30
2022-08-07T09:39:18.075Z,30.00
2022-08-07T09:42:09.588Z,29.70
2022-08-07T09:47:24.645Z,29.30
2022-08-07T09:48:43.955Z,28.30
2022-08-07T09:52:16.254Z,26.60
2022-08-07T09:54:44.853Z,25.30
2022-08-07T09:57:46.732Z,25.00
2022-08-07T10:00:24.388Z,24.90
2022-08-07T10:04:04.975Z,25.10
2022-08-07T10:06:24.357Z,25.60
2022-08-07T10:09:17.505Z,25.40
2022-08-07T10:12:21.611Z,25.20
2022-08-07T10:15:15.340Z,25.10
2022-08-07T10:18:10.254Z,24.80
2022-08-07T10:20:57.889Z,24.60
2022-08-07T10:24:06.965Z,24.90
2022-08-07T10:26:51.602Z,25.20
2022-08-07T10:29:45.515Z,25.10
2022-08-07T10:32:52.428Z,24.80
2022-08-07T10:35:55.506Z,24.60
2022-08-07T10:38:49.291Z,24.00
2022-08-07T10:41:52.273Z,23.70
2022-08-07T10:44:33.872Z,23.80
2022-08-07T10:47:26.909Z,24.20
2022-08-07T10:50:08.504Z,24.90
2022-08-07T10:52:42.831Z,25.70
2022-08-07T10:55:38.349Z,26.60
2022-08-07T10:58:40.561Z,27.60
2022-08-07T11:01:25.184Z,28.00
2022-08-07T11:04:31.391Z,28.20
2022-08-07T11:07:14.839Z,28.20
2022-08-07T11:10:07.425Z,28.50
2022-08-07T11:12:49.190Z,28.80
2022-08-07T11:15:26.376Z,29.10
2022-08-07T11:18:20.188Z,29.00
2022-08-07T11:21:02.890Z,28.00
2022-08-07T11:24:05.735Z,26.90
2022-08-07T11:26:51.142Z,26.00
2022-08-07T11:30:17.965Z,25.90
2022-08-07T11:32:54.188Z,26.10
2022-08-07T11:35:28.209Z,26.70
2022-08-07T11:38:21.728Z,27.10
2022-08-07T11:41:05.742Z,28.30
2022-08-07T11:43:54.480Z,29.80
2022-08-07T11:46:57.213Z,28.70
2022-08-07T11:50:30.677Z,27.50
2022-08-07T11:53:16.758Z,27.40
2022-08-07T11:56:26.075Z,27.30
2022-08-07T12:00:11.995Z,27.40
2022-08-07T12:02:33.600Z,27.80
2022-08-07T12:05:28.860Z,28.40
2022-08-07T12:08:25.962Z,28.20
2022-08-07T12:11:20.123Z,28.50
2022-08-07T12:14:08.415Z,29.20
2022-08-07T12:16:50.742Z,28.80
2022-08-07T12:19:35.632Z,28.30
2022-08-07T12:22:47.282Z,27.40
2022-08-07T12:26:03.363Z,26.80
2022-08-07T12:29:20.306Z,26.20
2022-08-07T12:32:37.927Z,25.40
2022-08-07T12:35:10.013Z,25.20
2022-08-07T12:38:09.486Z,25.50
2022-08-07T12:40:47.492Z,26.60
2022-08-07T12:44:05.084Z,27.40
2022-08-07T12:46:15.725Z,28.10
2022-08-07T12:48:55.191Z,29.50
2022-08-07T12:51:46.493Z,29.90
2022-08-07T12:54:38.027Z,30.80
2022-08-07T12:57:09.485Z,31.80
2022-08-07T12:59:54.255Z,31.70
2022-08-07T13:03:01.238Z,31.90
2022-08-07T13:06:21.405Z,30.60
2022-08-07T13:10:21.655Z,28.80
2022-08-07T13:12:22.182Z,27.40
2022-08-07T13:15:11.701Z,27.30
2022-08-07T13:17:57.809Z,27.20
2022-08-07T13:20:31.236Z,27.70
2022-08-07T13:24:00.002Z,28.30
2022-08-07T13:26:05.376Z,28.20
2022-08-07T13:28:44.744Z,28.20
2022-08-07T13:31:20.764Z,28.90
2022-08-07T13:34:30.113Z,29.80
2022-08-07T13:36:54.415Z,29.50
2022-08-07T13:40:32.728Z,28.50
2022-08-07T13:42:26.989Z,27.90
2022-08-07T13:45:20.881Z,28.00
2022-08-07T13:48:05.982Z,27.90
2022-08-07T13:51:00.291Z,28.00
2022-08-07T13:53:23.841Z,28.70
2022-08-07T13:55:54.323Z,28.90
2022-08-07T13:58:43.384Z,28.90
2022-08-07T14:01:26.191Z,28.30
2022-08-07T14:04:05.182Z,28.10
2022-08-07T14:06:36.945Z,27.60
2022-08-07T14:09:07.115Z,27.80
2022-08-07T14:11:53.245Z,28.00
2022-08-07T14:14:31.439Z,27.60
2022-08-07T14:17:51.397Z,27.60
2022-08-07T14:20:43.596Z,28.10
2022-08-07T14:22:48.451Z,28.10
2022-08-07T14:25:17.567Z,27.80
2022-08-07T14:28:12.746Z,27.20
2022-08-07T14:30:40.753Z,26.60
2022-08-07T14:33:09.038Z,26.60
2022-08-07T14:35:45.073Z,26.10
2022-08-07T14:38:26.080Z,25.60
2022-08-07T14:41:00.819Z,25.20
2022-08-07T14:43:58.778Z,25.40
2022-08-07T14:46:31.287Z,25.70
2022-08-07T14:54:42.932Z,25.50
2022-08-07T14:57:19.637Z,25.10
2022-08-07T15:00:06.220Z,24.90
2022-08-07T15:02:37.182Z,24.90
2022-08-07T15:05:19.733Z,25.20
2022-08-07T15:10:40.177Z,25.70
2022-08-07T15:13:37.125Z,25.90
2022-08-07T15:18:57.125Z,26.10
2022-08-07T15:21:58.395Z,26.10
2022-08-07T15:25:13.547Z,26.00
2022-08-07T15:27:22.343Z,25.70
2022-08-07T15:38:47.729Z,25.60
2022-08-07T15:42:43.773Z,25.40
2022-08-07T15:44:13.028Z,25.10
2022-08-07T15:50:03.889Z,25.10
2022-08-07T15:52:30.800Z,25.20
2022-08-07T15:55:03.722Z,25.10
2022-08-07T15:57:47.627Z,24.80
2022-08-07T16:00:31.045Z,24.60
2022-08-07T16:03:21.393Z,24.40
2022-08-07T16:05:57.240Z,24.40
2022-08-07T16:08:30.536Z,24.40
2022-08-07T16:11:04.587Z,24.50
2022-08-07T16:14:03.024Z,24.50
2022-08-07T16:16:47.697Z,24.40
2022-08-07T16:19:42.251Z,24.30
2022-08-07T16:22:55.200Z,24.40
2022-08-07T16:25:55.449Z,24.40
2022-08-07T16:30:07.090Z,24.30
2022-08-07T16:31:51.275Z,24.20
2022-08-07T16:34:48.294Z,24.10
2022-08-07T16:38:03.425Z,24.20
2022-08-07T16:40:23.181Z,24.10
2022-08-07T16:43:23.359Z,24.20
2022-08-07T16:47:05.808Z,24.10
2022-08-07T16:50:20.256Z,24.10
2022-08-07T16:54:01.978Z,24.20
2022-08-07T16:56:48.921Z,24.00
2022-08-07T16:59:47.053Z,24.00
2022-08-07T17:02:52.315Z,24.00
2022-08-07T17:06:19.669Z,23.90
2022-08-07T17:10:06.683Z,23.90
2022-08-07T17:12:42.277Z,23.80
2022-08-07T17:15:44.275Z,23.70
2022-08-07T17:18:36.619Z,23.70
2022-08-07T17:21:18.847Z,23.60
2022-08-07T17:24:01.781Z,23.50
2022-08-07T17:26:58.372Z,23.50
2022-08-07T17:30:14.823Z,23.50
2022-08-07T17:32:52.096Z,23.50
2022-08-07T17:35:51.436Z,23.40
2022-08-07T17:38:33.638Z,23.40
2022-08-07T17:42:01.181Z,23.30
2022-08-07T17:44:09.314Z,23.40
2022-08-07T17:47:16.643Z,23.30
2022-08-07T17:50:16.752Z,23.20
2022-08-07T17:53:07.426Z,23.10
2022-08-07T17:56:06.578Z,23.20
2022-08-07T17:58:46.346Z,23.10
2022-08-07T18:01:21.459Z,22.90
2022-08-07T18:04:07.480Z,22.90
2022-08-07T18:06:43.135Z,22.80
2022-08-07T18:09:16.458Z,22.70
2022-08-07T18:12:16.032Z,22.60
2022-08-07T18:14:54.818Z,22.50
2022-08-07T18:18:45.174Z,22.50
2022-08-07T18:21:12.327Z,22.50
2022-08-07T18:23:56.116Z,22.40
2022-08-07T18:26:45.872Z,22.30
2022-08-07T18:30:06.990Z,22.20
2022-08-07T18:32:39.127Z,22.10
2022-08-07T18:35:32.898Z,22.00
2022-08-07T18:38:56.752Z,21.90
2022-08-07T18:41:45.220Z,21.70
2022-08-07T18:45:40.370Z,21.60
2022-08-07T18:48:05.263Z,21.40
2022-08-07T18:50:47.603Z,21.20
2022-08-07T18:53:40.447Z,21.10
2022-08-07T18:56:32.127Z,20.90
2022-08-07T18:59:47.159Z,20.70
2022-08-07T19:02:42.317Z,20.50
2022-08-07T19:06:03.630Z,20.30
2022-08-07T19:08:25.682Z,20.20
2022-08-07T19:11:35.816Z,20.10
2022-08-07T19:14:17.151Z,20.00
2022-08-07T19:17:07.832Z,19.80
2022-08-07T19:19:48.634Z,19.70
2022-08-07T19:22:36.525Z,19.60
2022-08-07T19:25:12.447Z,19.50
2022-08-07T19:28:30.058Z,19.40
2022-08-07T19:31:37.405Z,19.40
2022-08-07T19:33:44.531Z,19.30
2022-08-07T19:36:27.827Z,19.30
2022-08-07T19:38:59.021Z,19.20
2022-08-07T19:41:39.403Z,19.10
2022-08-07T19:44:21.275Z,19.00
2022-08-07T19:46:55.820Z,18.90
2022-08-07T19:49:56.413Z,18.90
2022-08-07T19:52:18.266Z,18.90
2022-08-07T19:54:56.300Z,18.80
2022-08-07T19:58:02.454Z,18.90
2022-08-07T20:00:29.782Z,18.80
2022-08-07T20:03:02.821Z,18.70
2022-08-07T20:05:59.958Z,18.60
2022-08-07T20:08:30.157Z,18.50
2022-08-07T20:11:03.660Z,18.40
2022-08-07T20:13:43.329Z,18.30
2022-08-07T20:16:15.726Z,18.20
2022-08-07T20:19:00.281Z,18.10
2022-08-07T20:21:42.134Z,18.00
2022-08-07T20:24:32.550Z,17.90
2022-08-07T20:27:02.374Z,17.90
2022-08-07T20:29:48.738Z,17.80
2022-08-07T20:32:39.823Z,17.70
2022-08-07T20:35:26.393Z,17.60
2022-08-07T20:37:59.854Z,17.40
2022-08-07T20:40:32.454Z,17.10
2022-08-07T20:43:02.438Z,17.00
2022-08-07T20:46:25.698Z,16.80
2022-08-07T20:48:28.759Z,16.70
2022-08-07T20:50:59.930Z,16.70
2022-08-07T20:54:02.834Z,16.60
2022-08-07T20:56:16.458Z,16.60
2022-08-07T20:58:53.171Z,16.50
2022-08-07T21:01:22.194Z,16.40
2022-08-07T21:04:18.715Z,16.30
2022-08-07T21:06:46.590Z,16.20
2022-08-07T21:09:24.599Z,16.20
2022-08-07T21:11:57.545Z,16.10
2022-08-07T21:14:33.293Z,16.10
2022-08-07T21:18:03.121Z,16.10
2022-08-07T21:20:05.290Z,16.10
2022-08-07T21:22:39.019Z,16.10
2022-08-07T21:25:17.017Z,15.90
2022-08-07T21:28:10.425Z,15.80
2022-08-07T21:30:46.980Z,15.60
2022-08-07T21:33:17.423Z,15.50
2022-08-07T21:36:05.445Z,15.40
2022-08-07T21:38:49.962Z,15.30
2022-08-07T21:41:24.435Z,15.30
2022-08-07T21:44:14.731Z,15.30
2022-08-07T21:47:17.371Z,15.30
2022-08-07T21:50:02.062Z,15.30
2022-08-07T21:53:07.645Z,15.20
2022-08-07T21:56:07.219Z,14.90
2022-08-07T21:59:16.882Z,14.60
2022-08-07T22:02:10.340Z,14.50
2022-08-07T22:04:54.000Z,14.60
2022-08-07T22:07:21.213Z,14.50
2022-08-07T22:09:55.365Z,14.40
2022-08-07T22:12:32.218Z,14.30
2022-08-07T22:16:45.111Z,14.10
2022-08-07T22:18:09.301Z,14.00
2022-08-07T22:20:52.198Z,14.00
2022-08-07T22:23:30.077Z,14.00
2022-08-07T22:26:07.001Z,14.00
2022-08-07T22:28:53.123Z,13.90
2022-08-07T22:31:58.982Z,13.90
2022-08-07T22:34:53.474Z,13.90
2022-08-07T22:38:03.337Z,13.90
2022-08-07T22:40:51.544Z,13.90
2022-08-07T22:43:27.846Z,13.80
2022-08-07T22:47:02.895Z,13.80
2022-08-07T22:49:51.746Z,13.80
2022-08-07T22:52:37.011Z,13.80
2022-08-07T22:55:34.142Z,13.80
2022-08-07T22:58:44.500Z,13.80
2022-08-07T23:01:11.215Z,13.80
2022-08-07T23:03:59.033Z,13.80
2022-08-07T23:06:51.474Z,13.80
2022-08-07T23:10:04.246Z,13.70
2022-08-07T23:12:51.667Z,13.70
2022-08-07T23:16:06.912Z,13.60
2022-08-07T23:18:42.116Z,13.40
2022-08-07T23:21:29.817Z,13.20
2022-08-07T23:24:32.493Z,13.00
2022-08-07T23:27:34.132Z,12.90
2022-08-07T23:30:39.126Z,12.90
2022-08-07T23:34:22.145Z,12.80
2022-08-07T23:37:17.574Z,12.80
2022-08-07T23:40:07.364Z,12.80
2022-08-07T23:42:53.247Z,12.80
2022-08-07T23:46:01.448Z,12.60
2022-08-07T23:48:34.770Z,12.50
2022-08-07T23:53:01.037Z,12.50
2022-08-07T23:54:44.585Z,12.40
2022-08-07T23:57:25.037Z,12.30
